Pintada, New Mexico
Current Conditions -  °F | °C
As of 7:53 AM on Sunday 21 Dec 2014 (Local Time) from KCQC Reporting Station
Clear Clear  
Wind Chill: -9°   Ceiling: Unl
Heat Index: -1°   Visibility: 10mi
Dew Point: -5°   Wind: 24mph
Humidity: 75%   Direction: 310°NW
Pressure: 29.92"   Gusts: 32mph
Location:  34.8581°N, 104.704°W
Report Text: KCQC 211453Z AUTO 31021G28KT 10SM CLR M01/M05 A2992 RMK AO2 PK WND 30033/1356 SLP134 T10111050 58001
Loading
Personal Weather Stations






























Interactive Weather Map New forecast layout! Learn more

10-Day Weather Forecast

Advertisements
Track Severe Weather on mobile